Time;durP1;ratioP1;P1;durP2;ratioP2;P2;SDS_P1;SDS_P2;PMS_P1;PMS_P2;Temp;Humidity;BMP_temperature;BMP_pressure;BME280_temperature;BME280_humidity;BME280_pressure;Samples;Min_cycle;Max_cycle;Signal;HPM_P1;HPM_P2
2023/06/04 00:00:17;;;;;;;1.60;1.50;;;21.20;68.40;;;;;;5004643;28;20488;-74
2023/06/04 00:02:42;;;;;;;1.45;1.35;;;21.20;68.40;;;;;;5004315;28;20034;-74
2023/06/04 00:05:08;;;;;;;1.70;1.60;;;21.20;68.40;;;;;;5008032;28;20046;-75
2023/06/04 00:07:33;;;;;;;2.35;1.23;;;21.20;68.50;;;;;;5003941;28;20181;-75
2023/06/04 00:09:59;;;;;;;1.90;1.80;;;21.20;68.50;;;;;;5001343;28;20049;-75
2023/06/04 00:12:25;;;;;;;1.70;1.60;;;21.20;68.60;;;;;;5003140;28;20404;-74
2023/06/04 00:14:50;;;;;;;2.25;1.83;;;21.20;68.60;;;;;;4992219;28;20049;-74
2023/06/04 00:17:16;;;;;;;1.50;1.40;;;21.20;68.50;;;;;;5010184;28;20491;-74
2023/06/04 00:19:41;;;;;;;2.10;2.00;;;21.20;68.60;;;;;;5007554;28;20061;-74
2023/06/04 00:22:07;;;;;;;1.60;1.52;;;21.20;68.50;;;;;;4999998;28;20525;-75
2023/06/04 00:24:33;;;;;;;2.00;1.80;;;21.20;68.60;;;;;;5005954;28;20046;-75
2023/06/04 00:26:59;;;;;;;1.48;1.40;;;21.20;68.50;;;;;;5004927;28;20491;-75
2023/06/04 00:29:24;;;;;;;2.13;2.03;;;21.20;68.40;;;;;;4995722;28;20037;-75
2023/06/04 00:31:50;;;;;;;1.45;1.35;;;21.20;69.20;;;;;;4992869;28;20500;-75
2023/06/04 00:34:17;;;;;;;1.58;1.48;;;21.20;68.40;;;;;;4991126;28;20412;-74
2023/06/04 00:36:43;;;;;;;1.60;1.50;;;21.20;68.40;;;;;;5003778;28;20563;-74
2023/06/04 00:39:09;;;;;;;1.20;1.15;;;21.20;68.50;;;;;;5004538;28;20133;-75
2023/06/04 00:41:34;;;;;;;1.30;1.27;;;21.20;68.40;;;;;;4991898;28;20066;-75
2023/06/04 00:44:01;;;;;;;1.50;1.40;;;21.20;68.40;;;;;;4991500;28;20042;-75
2023/06/04 00:46:28;;;;;;;1.40;1.30;;;21.20;68.50;;;;;;4992038;28;20034;-74
2023/06/04 00:48:53;;;;;;;2.58;1.40;;;21.20;68.40;;;;;;4991782;28;20050;-74
2023/06/04 00:51:20;;;;;;;1.45;1.35;;;21.20;68.40;;;;;;4985285;28;20038;-74
2023/06/04 00:53:46;;;;;;;1.77;1.67;;;21.10;68.40;;;;;;4990555;28;20034;-74
2023/06/04 00:56:12;;;;;;;1.95;1.50;;;21.20;68.40;;;;;;5008851;28;20088;-74
2023/06/04 00:58:38;;;;;;;1.70;1.60;;;21.20;68.50;;;;;;4991527;28;20108;-75
2023/06/04 01:01:04;;;;;;;3.42;1.40;;;21.20;68.40;;;;;;4992581;28;20143;-75
2023/06/04 01:03:31;;;;;;;1.63;1.52;;;21.10;68.30;;;;;;4987609;28;20508;-74
2023/06/04 01:06:20;;;;;;;1.60;1.50;;;21.20;68.40;;;;;;4989009;28;20062;-74
2023/06/04 01:08:48;;;;;;;1.77;1.67;;;21.10;68.40;;;;;;5003187;28;20085;-75
2023/06/04 01:11:14;;;;;;;1.40;1.33;;;21.20;68.40;;;;;;5004751;28;20046;-75
2023/06/04 01:13:40;;;;;;;1.52;1.50;;;21.20;68.40;;;;;;5011415;28;20046;-74
2023/06/04 01:16:05;;;;;;;1.60;1.58;;;21.10;68.40;;;;;;5021834;28;20050;-74
2023/06/04 01:18:32;;;;;;;1.55;1.45;;;21.10;68.30;;;;;;5020777;28;20042;-75
2023/06/04 01:21:00;;;;;;;1.90;1.80;;;21.10;68.40;;;;;;4995325;28;20042;-75
2023/06/04 01:23:34;;;;;;;1.65;1.55;;;21.10;68.30;;;;;;4991308;28;20540;-75
2023/06/04 01:26:04;;;;;;;1.42;1.33;;;21.10;68.40;;;;;;5026133;28;20050;-75
2023/06/04 01:28:32;;;;;;;1.50;1.40;;;21.20;68.30;;;;;;5006048;28;20403;-75
2023/06/04 01:30:59;;;;;;;1.40;1.30;;;21.10;68.30;;;;;;5001077;28;20061;-74
2023/06/04 01:33:25;;;;;;;1.58;1.48;;;21.20;68.40;;;;;;4994956;28;20448;-74
2023/06/04 01:35:51;;;;;;;1.70;1.60;;;21.10;68.40;;;;;;5009121;28;20061;-75
2023/06/04 01:38:16;;;;;;;1.27;1.17;;;21.10;68.40;;;;;;4993362;28;20129;-75
2023/06/04 01:40:42;;;;;;;1.30;1.30;;;21.10;68.30;;;;;;4996146;28;20058;-75
2023/06/04 01:43:08;;;;;;;1.25;1.15;;;21.10;68.30;;;;;;4996900;28;20061;-75
2023/06/04 01:45:33;;;;;;;1.45;1.45;;;21.10;68.40;;;;;;5002776;28;20046;-74
2023/06/04 01:48:01;;;;;;;1.65;1.55;;;21.10;68.50;;;;;;5010994;28;20038;-74
2023/06/04 01:50:26;;;;;;;1.42;1.33;;;21.10;68.40;;;;;;4998708;28;20136;-74
2023/06/04 01:52:52;;;;;;;1.10;1.10;;;21.10;68.60;;;;;;4997601;28;20126;-74
2023/06/04 01:55:17;;;;;;;1.38;1.30;;;21.10;68.40;;;;;;4987827;28;20137;-74
2023/06/04 01:57:50;;;;;;;1.50;1.40;;;21.10;68.60;;;;;;5002620;28;20125;-74
2023/06/04 02:00:15;;;;;;;1.50;1.40;;;21.10;68.50;;;;;;4996349;28;20563;-74
2023/06/04 02:02:42;;;;;;;1.17;1.13;;;21.10;68.40;;;;;;4998031;28;20093;-74
2023/06/04 02:05:08;;;;;;;1.38;1.27;;;21.10;68.60;;;;;;5007588;28;20055;-74
2023/06/04 02:07:38;;;;;;;1.20;1.20;;;21.10;68.40;;;;;;4995633;28;20128;-74
2023/06/04 02:10:16;;;;;;;1.98;1.58;;;21.10;68.50;;;;;;5010655;28;20050;-74
2023/06/04 02:13:04;;;;;;;1.30;1.30;;;21.10;68.60;;;;;;5009807;28;20423;-74
2023/06/04 02:15:31;;;;;;;1.80;1.70;;;21.10;68.50;;;;;;4995484;28;20062;-74
2023/06/04 02:18:02;;;;;;;1.52;1.42;;;21.10;68.50;;;;;;5025456;28;20112;-74
2023/06/04 02:20:28;;;;;;;1.33;1.23;;;21.10;68.40;;;;;;4990681;28;20038;-75
2023/06/04 02:22:56;;;;;;;1.27;1.20;;;21.10;68.50;;;;;;4996588;28;20054;-74
2023/06/04 02:25:23;;;;;;;1.10;1.10;;;21.10;68.60;;;;;;5005027;28;20053;-74
2023/06/04 02:27:49;;;;;;;0.95;0.95;;;21.10;68.40;;;;;;5001573;28;20504;-74
2023/06/04 02:30:16;;;;;;;1.27;1.27;;;21.10;68.40;;;;;;4996020;28;20112;-74
2023/06/04 02:32:44;;;;;;;1.27;1.17;;;21.10;68.40;;;;;;4991998;28;20113;-74
2023/06/04 02:35:10;;;;;;;1.10;1.10;;;21.10;68.40;;;;;;4996625;28;20034;-74
2023/06/04 02:37:35;;;;;;;1.30;1.00;;;21.10;68.30;;;;;;4994692;28;20572;-74
2023/06/04 02:40:01;;;;;;;1.08;1.08;;;21.10;68.30;;;;;;4996882;28;20080;-74
2023/06/04 02:42:26;;;;;;;1.13;0.98;;;21.10;68.20;;;;;;4994790;28;20053;-74
2023/06/04 02:44:52;;;;;;;1.10;1.10;;;21.10;68.10;;;;;;4995569;28;20537;-74
2023/06/04 02:47:19;;;;;;;1.40;1.25;;;21.10;68.10;;;;;;4992200;28;20077;-74
2023/06/04 02:49:46;;;;;;;1.00;1.00;;;21.10;68.10;;;;;;4994700;28;20073;-74
2023/06/04 02:52:11;;;;;;;1.35;1.10;;;21.10;68.10;;;;;;4995901;28;20419;-74
2023/06/04 02:54:37;;;;;;;1.02;1.02;;;21.10;68.10;;;;;;4994969;28;20563;-74
2023/06/04 02:57:03;;;;;;;0.95;0.95;;;21.10;68.10;;;;;;5006476;28;20046;-74
2023/06/04 02:59:28;;;;;;;1.13;1.13;;;21.00;68.10;;;;;;4987867;28;20053;-74
2023/06/04 03:01:54;;;;;;;1.23;1.13;;;21.00;68.00;;;;;;5003952;28;20092;-74
2023/06/04 03:04:20;;;;;;;1.02;1.02;;;21.00;67.90;;;;;;5011061;28;20072;-74
2023/06/04 03:06:47;;;;;;;1.48;1.38;;;21.10;68.10;;;;;;4992756;28;20416;-74
2023/06/04 03:09:12;;;;;;;1.65;1.60;;;21.00;68.00;;;;;;4994851;28;20046;-74
2023/06/04 03:11:38;;;;;;;1.23;1.13;;;21.00;68.00;;;;;;4993245;28;20052;-74
2023/06/04 03:14:03;;;;;;;0.98;0.98;;;21.00;68.00;;;;;;4993504;28;20053;-74
2023/06/04 03:16:29;;;;;;;1.65;1.27;;;21.00;68.20;;;;;;5007350;28;20038;-73
2023/06/04 03:18:56;;;;;;;0.93;0.93;;;21.00;67.80;;;;;;5000149;28;20054;-75
2023/06/04 03:21:21;;;;;;;1.30;1.20;;;21.00;68.60;;;;;;4995503;28;20080;-75
2023/06/04 03:23:47;;;;;;;1.05;1.05;;;21.00;67.80;;;;;;4991104;28;20065;-75
2023/06/04 03:26:13;;;;;;;1.00;1.00;;;21.00;67.80;;;;;;5022104;28;20042;-75
2023/06/04 03:28:40;;;;;;;1.17;1.17;;;21.00;67.80;;;;;;4993569;28;20070;-75
2023/06/04 03:31:05;;;;;;;1.30;1.30;;;21.00;67.80;;;;;;4994419;28;20034;-75
2023/06/04 03:33:31;;;;;;;0.90;0.90;;;21.00;67.80;;;;;;4994416;28;20397;-75
2023/06/04 03:35:59;;;;;;;0.90;0.90;;;21.00;67.70;;;;;;5005900;28;20088;-74
2023/06/04 03:38:25;;;;;;;0.88;0.88;;;21.00;67.70;;;;;;5009636;28;20047;-74
2023/06/04 03:40:52;;;;;;;1.02;1.00;;;21.00;67.70;;;;;;4994867;28;20038;-74
2023/06/04 03:43:19;;;;;;;1.15;1.02;;;21.00;67.60;;;;;;4994747;28;20129;-75
2023/06/04 03:45:44;;;;;;;0.80;0.80;;;21.00;67.60;;;;;;4993588;28;20043;-75
2023/06/04 03:48:10;;;;;;;1.10;1.10;;;21.00;67.60;;;;;;4994168;28;20100;-74
2023/06/04 03:50:36;;;;;;;1.15;1.08;;;21.00;67.60;;;;;;4989757;28;20092;-75
2023/06/04 03:53:04;;;;;;;1.02;1.02;;;21.00;67.60;;;;;;5010536;28;20047;-74
2023/06/04 03:55:31;;;;;;;0.82;0.82;;;21.00;67.70;;;;;;5001118;28;20045;-75
2023/06/04 03:57:57;;;;;;;1.00;1.00;;;21.00;67.60;;;;;;4999404;28;20045;-75
2023/06/04 04:00:23;;;;;;;0.85;0.85;;;21.00;67.60;;;;;;4994010;28;20042;-75
2023/06/04 04:02:49;;;;;;;0.82;0.82;;;21.00;67.50;;;;;;5006829;28;20038;-75
2023/06/04 04:05:15;;;;;;;0.90;0.90;;;20.90;67.50;;;;;;4990919;28;20096;-74
2023/06/04 04:07:40;;;;;;;1.63;1.10;;;21.00;67.60;;;;;;4993180;28;20079;-74
2023/06/04 04:10:06;;;;;;;1.20;0.88;;;21.00;67.60;;;;;;4993865;28;20496;-74
2023/06/04 04:12:32;;;;;;;1.15;0.75;;;21.00;67.60;;;;;;4992790;28;20038;-74
2023/06/04 04:14:58;;;;;;;1.40;0.95;;;21.00;67.60;;;;;;4994535;28;20523;-74
2023/06/04 04:17:24;;;;;;;1.00;1.00;;;21.00;67.60;;;;;;5009656;28;20038;-74
2023/06/04 04:19:49;;;;;;;0.70;0.70;;;21.00;67.60;;;;;;4991470;28;20049;-74
2023/06/04 04:22:17;;;;;;;0.60;0.60;;;21.00;67.50;;;;;;4994029;28;20054;-74
2023/06/04 04:24:43;;;;;;;0.80;0.80;;;21.00;67.50;;;;;;4994480;28;20046;-74
2023/06/04 04:27:10;;;;;;;1.15;1.00;;;21.00;67.40;;;;;;5005696;28;20054;-74
2023/06/04 04:29:36;;;;;;;1.00;0.80;;;21.00;67.50;;;;;;4990319;28;20054;-74
2023/06/04 04:32:10;;;;;;;0.73;0.73;;;21.00;67.50;;;;;;4991747;28;20030;-74
2023/06/04 04:34:37;;;;;;;0.75;0.75;;;21.00;67.50;;;;;;4990804;28;20407;-74
2023/06/04 04:37:03;;;;;;;0.80;0.80;;;20.90;67.30;;;;;;4992577;28;20050;-74
2023/06/04 04:39:28;;;;;;;0.80;0.77;;;20.90;67.40;;;;;;4994597;28;20439;-74
2023/06/04 04:41:55;;;;;;;0.90;0.90;;;20.90;67.30;;;;;;4992624;28;20046;-74
2023/06/04 04:44:20;;;;;;;0.70;0.70;;;20.90;67.30;;;;;;4990789;28;20799;-74
2023/06/04 04:46:47;;;;;;;0.90;0.90;;;20.90;67.30;;;;;;4990782;28;20073;-74
2023/06/04 04:49:13;;;;;;;1.42;0.95;;;21.00;67.40;;;;;;4993726;28;20054;-74
2023/06/04 04:51:38;;;;;;;0.85;0.85;;;20.90;67.30;;;;;;4993415;28;20431;-74
2023/06/04 04:54:04;;;;;;;1.00;1.00;;;20.90;67.30;;;;;;4991924;28;20046;-74
2023/06/04 04:56:32;;;;;;;0.90;0.90;;;20.90;67.20;;;;;;4994821;28;20060;-74
2023/06/04 04:58:58;;;;;;;1.00;1.00;;;21.00;67.30;;;;;;4991521;28;20456;-74
2023/06/04 05:01:25;;;;;;;1.00;1.00;;;20.90;67.20;;;;;;4992791;28;20052;-74
2023/06/04 05:03:51;;;;;;;0.80;0.80;;;20.90;67.20;;;;;;4990453;28;20096;-74
2023/06/04 05:06:16;;;;;;;1.10;1.00;;;20.90;67.20;;;;;;4992991;28;20488;-74
2023/06/04 05:08:42;;;;;;;1.08;1.05;;;20.90;67.30;;;;;;4988441;28;20046;-74
2023/06/04 05:11:07;;;;;;;0.82;0.82;;;20.90;67.20;;;;;;4994245;28;20066;-74
2023/06/04 05:13:33;;;;;;;0.90;0.90;;;20.90;67.20;;;;;;4992571;28;20530;-74
2023/06/04 05:15:59;;;;;;;0.80;0.80;;;20.90;67.10;;;;;;5000922;28;20533;-74
2023/06/04 05:18:28;;;;;;;1.05;0.93;;;20.90;67.10;;;;;;5003308;28;20030;-74
2023/06/04 05:20:55;;;;;;;1.10;1.10;;;20.90;67.10;;;;;;4988763;28;20039;-73
2023/06/04 05:23:20;;;;;;;0.80;0.80;;;20.90;67.10;;;;;;4992076;28;20038;-73
2023/06/04 05:25:48;;;;;;;0.93;0.93;;;20.90;67.10;;;;;;4990932;28;20116;-73
2023/06/04 05:28:14;;;;;;;0.70;0.70;;;20.90;67.10;;;;;;5008060;28;20031;-73
2023/06/04 05:30:41;;;;;;;1.05;1.05;;;20.90;67.10;;;;;;4991888;28;20500;-74
2023/06/04 05:33:11;;;;;;;0.95;0.95;;;20.90;67.20;;;;;;4992023;28;20133;-74
2023/06/04 05:35:41;;;;;;;1.00;1.00;;;20.90;67.10;;;;;;4991553;28;20089;-74
2023/06/04 05:38:06;;;;;;;0.80;0.80;;;20.90;67.20;;;;;;4992519;28;20050;-74
2023/06/04 05:40:32;;;;;;;0.73;0.73;;;20.90;67.00;;;;;;4992517;28;20042;-74
2023/06/04 05:42:57;;;;;;;0.80;0.70;;;20.90;67.00;;;;;;4991825;28;20038;-74
2023/06/04 05:45:23;;;;;;;0.93;0.93;;;20.90;66.90;;;;;;4992457;28;20033;-74
2023/06/04 05:47:48;;;;;;;1.10;1.00;;;20.90;66.90;;;;;;4991997;28;20049;-74
2023/06/04 05:50:14;;;;;;;1.15;1.08;;;20.90;66.90;;;;;;5005203;28;20045;-74
2023/06/04 05:52:40;;;;;;;0.65;0.65;;;20.90;66.90;;;;;;4993156;28;20420;-73
2023/06/04 05:55:07;;;;;;;0.73;0.73;;;20.90;66.90;;;;;;4991045;28;20147;-73
2023/06/04 05:57:33;;;;;;;0.60;0.60;;;20.90;66.90;;;;;;4994623;28;20081;-73
2023/06/04 05:59:58;;;;;;;0.77;0.77;;;20.90;66.90;;;;;;4993424;28;20050;-73
2023/06/04 06:02:24;;;;;;;1.08;0.70;;;20.90;66.80;;;;;;4996395;28;20076;-73
2023/06/04 06:04:49;;;;;;;0.68;0.68;;;20.90;66.80;;;;;;5022000;28;20045;-73
2023/06/04 06:07:15;;;;;;;0.80;0.80;;;20.90;66.80;;;;;;4999961;28;20057;-73
2023/06/04 06:09:40;;;;;;;0.88;0.88;;;20.90;66.80;;;;;;5001729;28;20054;-74
2023/06/04 06:12:06;;;;;;;0.88;0.88;;;20.90;66.80;;;;;;5008767;28;20054;-74
2023/06/04 06:14:32;;;;;;;0.88;0.88;;;20.90;66.80;;;;;;4993913;28;20045;-74
2023/06/04 06:16:57;;;;;;;0.80;0.80;;;20.90;66.80;;;;;;5010605;28;20508;-74
2023/06/04 06:19:23;;;;;;;0.75;0.75;;;20.90;66.80;;;;;;4998219;28;20389;-74
2023/06/04 06:21:48;;;;;;;0.70;0.70;;;20.90;66.80;;;;;;5000896;28;20081;-74
2023/06/04 06:24:14;;;;;;;0.80;0.60;;;20.90;66.80;;;;;;5006272;28;20101;-74
2023/06/04 06:26:39;;;;;;;0.80;0.80;;;20.90;66.70;;;;;;4991525;28;20508;-74
2023/06/04 06:29:05;;;;;;;0.88;0.75;;;20.90;66.80;;;;;;4996851;28;20058;-73
2023/06/04 06:31:31;;;;;;;0.93;0.90;;;20.90;66.90;;;;;;4995936;28;20096;-74
2023/06/04 06:33:56;;;;;;;0.65;0.65;;;20.90;66.90;;;;;;5013855;28;20132;-74
2023/06/04 06:36:22;;;;;;;0.80;0.80;;;20.90;66.80;;;;;;5013331;28;20524;-73
2023/06/04 06:38:47;;;;;;;1.00;1.00;;;20.90;66.80;;;;;;5009658;28;20045;-73
2023/06/04 06:41:13;;;;;;;0.98;0.80;;;20.90;66.80;;;;;;4992376;28;20044;-74
2023/06/04 06:43:38;;;;;;;0.90;0.90;;;20.90;66.70;;;;;;5017225;28;20057;-74
2023/06/04 06:46:04;;;;;;;0.80;0.80;;;20.90;66.70;;;;;;5006924;28;20172;-73
2023/06/04 06:48:30;;;;;;;0.60;0.60;;;20.90;66.80;;;;;;5022911;28;20393;-73
2023/06/04 06:50:55;;;;;;;0.63;0.60;;;20.90;66.90;;;;;;4991686;28;20681;-73
2023/06/04 06:53:21;;;;;;;0.80;0.80;;;20.90;66.90;;;;;;4995244;28;20046;-73
2023/06/04 06:55:47;;;;;;;0.88;0.88;;;20.90;66.80;;;;;;4991577;28;20042;-73
2023/06/04 06:58:12;;;;;;;0.80;0.80;;;20.90;66.90;;;;;;5007077;28;20084;-73
2023/06/04 07:00:38;;;;;;;0.80;0.80;;;20.90;66.80;;;;;;5008982;28;20065;-74
2023/06/04 07:03:03;;;;;;;0.70;0.70;;;20.90;66.80;;;;;;5006517;28;20046;-74
2023/06/04 07:05:29;;;;;;;0.68;0.68;;;20.90;66.80;;;;;;5009207;28;20050;-74
2023/06/04 07:07:57;;;;;;;0.90;0.90;;;20.90;66.80;;;;;;5011576;28;20041;-74
2023/06/04 07:10:22;;;;;;;0.90;0.90;;;20.90;67.60;;;;;;4999983;28;20125;-74
2023/06/04 07:12:48;;;;;;;0.70;0.70;;;20.90;66.90;;;;;;4999962;28;20130;-74
2023/06/04 07:15:13;;;;;;;0.70;0.70;;;20.90;66.90;;;;;;5007975;28;20060;-74
2023/06/04 07:17:39;;;;;;;0.80;0.80;;;20.90;66.80;;;;;;5006679;28;20497;-74
2023/06/04 07:20:06;;;;;;;0.75;0.75;;;20.90;66.90;;;;;;5007431;28;20066;-74
2023/06/04 07:22:32;;;;;;;0.82;0.82;;;20.90;66.90;;;;;;5004741;28;20050;-73
2023/06/04 07:24:58;;;;;;;0.63;0.63;;;20.90;66.90;;;;;;4997290;28;20578;-74
2023/06/04 07:27:23;;;;;;;0.68;0.68;;;20.90;66.90;;;;;;4995320;28;20042;-74
2023/06/04 07:29:49;;;;;;;0.63;0.63;;;20.90;66.80;;;;;;5023193;28;20046;-74
2023/06/04 07:32:15;;;;;;;0.82;0.82;;;21.00;66.90;;;;;;4997560;28;20042;-74
2023/06/04 07:34:40;;;;;;;0.73;0.73;;;21.00;66.90;;;;;;5003370;28;20041;-74
2023/06/04 07:37:06;;;;;;;0.60;0.60;;;21.00;66.90;;;;;;5012121;28;20058;-74
2023/06/04 07:39:31;;;;;;;0.80;0.80;;;20.90;66.80;;;;;;5010385;28;20500;-74
2023/06/04 07:41:57;;;;;;;1.05;0.75;;;21.00;66.70;;;;;;5005788;28;20047;-73
2023/06/04 07:44:22;;;;;;;0.77;0.77;;;21.00;66.70;;;;;;5009701;28;20041;-74
2023/06/04 07:46:48;;;;;;;0.65;0.65;;;21.00;66.90;;;;;;5001301;28;20069;-74
2023/06/04 07:49:14;;;;;;;0.70;0.70;;;21.00;66.90;;;;;;5001464;28;20097;-74
2023/06/04 07:51:40;;;;;;;0.80;0.80;;;21.00;66.90;;;;;;4994756;28;20076;-74
2023/06/04 07:54:06;;;;;;;0.75;0.75;;;20.90;66.70;;;;;;4992545;28;20042;-74
2023/06/04 07:56:31;;;;;;;0.70;0.70;;;20.90;65.60;;;;;;5008330;28;20427;-74
2023/06/04 07:58:57;;;;;;;0.60;0.60;;;20.90;66.70;;;;;;4992449;28;20184;-74
2023/06/04 08:01:23;;;;;;;0.70;0.70;;;20.90;66.20;;;;;;5011260;28;20062;-74
2023/06/04 08:03:49;;;;;;;1.50;0.80;;;21.00;66.00;;;;;;4994567;28;20113;-74
2023/06/04 08:06:15;;;;;;;0.82;0.82;;;21.00;66.10;;;;;;4994027;28;20050;-74
2023/06/04 08:08:45;;;;;;;0.63;0.63;;;21.00;66.80;;;;;;4991752;28;20049;-74
2023/06/04 08:11:11;;;;;;;0.60;0.60;;;21.00;66.10;;;;;;4990823;28;20527;-74
2023/06/04 08:13:37;;;;;;;1.98;0.65;;;21.00;66.10;;;;;;4993655;28;20034;-74
2023/06/04 08:16:02;;;;;;;0.70;0.70;;;21.00;66.40;;;;;;4999103;28;20045;-74
2023/06/04 08:18:28;;;;;;;0.60;0.60;;;21.00;66.40;;;;;;5003768;28;20484;-74
2023/06/04 08:20:54;;;;;;;0.70;0.70;;;21.00;66.30;;;;;;4992755;28;20468;-74
2023/06/04 08:23:20;;;;;;;0.70;0.70;;;21.00;66.30;;;;;;4990520;28;20046;-74
2023/06/04 08:25:45;;;;;;;0.60;0.60;;;21.00;66.40;;;;;;4991637;28;20618;-74
2023/06/04 08:28:13;;;;;;;0.70;0.70;;;21.00;66.40;;;;;;5008821;28;20058;-74
2023/06/04 08:30:39;;;;;;;0.65;0.65;;;21.00;66.40;;;;;;4999702;28;20530;-74
2023/06/04 08:33:04;;;;;;;0.60;0.60;;;21.10;66.50;;;;;;5004735;28;20131;-74
2023/06/04 08:35:30;;;;;;;0.75;0.75;;;21.10;66.50;;;;;;5008174;28;20582;-74
2023/06/04 08:37:56;;;;;;;0.63;0.63;;;21.10;66.50;;;;;;4991761;28;20038;-74
2023/06/04 08:40:22;;;;;;;0.60;0.60;;;21.10;66.50;;;;;;4992899;28;20042;-74
2023/06/04 08:42:48;;;;;;;0.50;0.50;;;21.10;66.50;;;;;;5007445;28;20049;-74
2023/06/04 08:45:15;;;;;;;0.95;0.70;;;21.10;66.50;;;;;;4991932;28;20041;-74
2023/06/04 08:47:50;;;;;;;0.50;0.50;;;21.10;66.40;;;;;;4991782;28;20050;-74
2023/06/04 08:50:26;;;;;;;0.70;0.70;;;21.10;66.30;;;;;;5020571;28;20042;-74
2023/06/04 08:52:55;;;;;;;0.50;0.50;;;21.10;66.30;;;;;;4992066;28;20074;-74
2023/06/04 08:55:21;;;;;;;0.70;0.70;;;21.10;66.30;;;;;;4991200;28;20130;-74
2023/06/04 08:57:47;;;;;;;0.75;0.75;;;21.10;66.20;;;;;;4993588;28;20125;-74
2023/06/04 09:00:13;;;;;;;0.60;0.60;;;21.10;66.30;;;;;;5006486;28;20052;-74
2023/06/04 09:02:39;;;;;;;0.50;0.40;;;21.20;66.20;;;;;;5006822;28;20054;-74
2023/06/04 09:05:08;;;;;;;0.70;0.70;;;21.10;66.20;;;;;;5008590;28;20048;-74
2023/06/04 09:07:35;;;;;;;0.98;0.60;;;21.10;66.10;;;;;;4993734;28;20046;-74
2023/06/04 09:10:01;;;;;;;1.85;0.70;;;21.20;66.20;;;;;;4990871;28;20054;-74
2023/06/04 09:12:26;;;;;;;0.60;0.60;;;21.10;66.90;;;;;;5007649;28;20085;-74
2023/06/04 09:14:52;;;;;;;0.60;0.60;;;21.20;66.10;;;;;;4990983;28;20034;-74
2023/06/04 09:17:24;;;;;;;0.70;0.70;;;21.20;66.30;;;;;;5009529;28;20057;-74
2023/06/04 09:19:50;;;;;;;0.70;0.70;;;21.20;66.10;;;;;;4992140;28;20114;-74
2023/06/04 09:22:15;;;;;;;0.50;0.50;;;21.20;66.10;;;;;;4992328;28;20456;-74
2023/06/04 09:24:46;;;;;;;0.52;0.52;;;21.20;66.10;;;;;;4993048;28;20598;-74
2023/06/04 09:27:12;;;;;;;0.50;0.50;;;21.10;66.10;;;;;;5004017;28;20459;-74
2023/06/04 09:29:39;;;;;;;0.50;0.50;;;21.20;66.10;;;;;;4992617;28;20045;-74
2023/06/04 09:32:05;;;;;;;0.95;0.70;;;21.20;66.10;;;;;;5005496;28;20140;-74
2023/06/04 09:34:30;;;;;;;0.60;0.60;;;21.20;66.10;;;;;;4999379;28;20125;-74
2023/06/04 09:36:56;;;;;;;0.60;0.60;;;21.20;66.10;;;;;;4995631;28;20077;-74
2023/06/04 09:39:23;;;;;;;0.50;0.50;;;21.20;66.10;;;;;;5000195;28;20129;-74
2023/06/04 09:42:00;;;;;;;0.60;0.60;;;21.20;66.00;;;;;;4996582;28;20148;-74
2023/06/04 09:44:25;;;;;;;0.65;0.63;;;21.20;66.10;;;;;;5007500;28;20057;-74
2023/06/04 09:46:57;;;;;;;0.55;0.55;;;21.20;66.00;;;;;;4995687;28;20030;-74
2023/06/04 09:49:23;;;;;;;0.80;0.80;;;21.20;66.00;;;;;;4996065;28;20138;-74
2023/06/04 09:51:49;;;;;;;0.70;0.70;;;21.30;66.00;;;;;;4996180;28;20125;-74
2023/06/04 09:54:15;;;;;;;0.60;0.60;;;21.20;66.00;;;;;;4995124;28;20042;-74
2023/06/04 09:56:40;;;;;;;0.60;0.60;;;21.20;66.00;;;;;;4994364;28;20049;-74
2023/06/04 09:59:06;;;;;;;0.63;0.63;;;21.20;66.00;;;;;;4992235;28;20069;-74
2023/06/04 10:01:32;;;;;;;0.70;0.70;;;21.30;66.00;;;;;;4994617;28;20050;-74
2023/06/04 10:04:03;;;;;;;0.68;0.68;;;21.30;65.90;;;;;;5011575;28;20134;-74
2023/06/04 10:06:30;;;;;;;0.45;0.45;;;21.30;65.90;;;;;;5005428;28;20049;-74
2023/06/04 10:08:56;;;;;;;0.52;0.52;;;21.30;65.90;;;;;;5008055;28;20041;-74
2023/06/04 10:11:25;;;;;;;0.57;0.57;;;21.30;65.90;;;;;;4991514;28;20133;-74
2023/06/04 10:13:59;;;;;;;0.45;0.45;;;21.30;65.90;;;;;;4997008;28;20054;-74
2023/06/04 10:16:25;;;;;;;1.02;0.57;;;21.30;65.90;;;;;;5006488;28;20121;-74
2023/06/04 10:18:54;;;;;;;0.60;0.60;;;21.30;65.90;;;;;;5001758;28;20130;-74
2023/06/04 10:21:20;;;;;;;0.40;0.40;;;21.30;65.90;;;;;;4990387;28;20504;-74
2023/06/04 10:23:46;;;;;;;0.60;0.60;;;21.30;65.90;;;;;;4975929;28;20088;-74
2023/06/04 10:26:15;;;;;;;0.50;0.50;;;21.30;65.90;;;;;;4996522;28;20092;-74
2023/06/04 10:28:41;;;;;;;0.60;0.60;;;21.40;66.00;;;;;;4993470;28;20096;-74
2023/06/04 10:31:09;;;;;;;0.60;0.60;;;21.30;65.90;;;;;;4996760;28;20451;-74
2023/06/04 10:33:34;;;;;;;0.80;0.60;;;21.30;65.90;;;;;;5008934;28;20046;-74
2023/06/04 10:36:10;;;;;;;0.50;0.50;;;21.30;65.90;;;;;;5010134;28;20046;-74
2023/06/04 10:38:47;;;;;;;0.60;0.60;;;21.30;65.80;;;;;;4991737;28;20065;-74
2023/06/04 10:41:15;;;;;;;0.60;0.60;;;21.40;65.80;;;;;;4990796;28;20039;-74
2023/06/04 10:43:40;;;;;;;0.57;0.57;;;21.40;65.80;;;;;;4995210;28;20052;-74
2023/06/04 10:46:16;;;;;;;0.45;0.45;;;21.40;65.80;;;;;;5009467;28;20415;-74
2023/06/04 10:48:52;;;;;;;0.60;0.60;;;21.40;65.70;;;;;;4995122;28;20427;-74
2023/06/04 10:51:33;;;;;;;0.60;0.60;;;21.40;65.80;;;;;;4994161;28;20046;-74
2023/06/04 10:54:00;;;;;;;0.60;0.60;;;21.40;65.80;;;;;;4992963;28;20036;-74
2023/06/04 10:56:29;;;;;;;0.50;0.50;;;21.40;65.70;;;;;;5009628;28;20081;-74
2023/06/04 10:58:55;;;;;;;0.63;0.63;;;21.40;65.70;;;;;;4995688;28;20046;-74
2023/06/04 11:01:24;;;;;;;0.52;0.52;;;21.40;65.80;;;;;;4994788;28;20105;-74
2023/06/04 11:03:50;;;;;;;1.85;0.77;;;21.40;65.80;;;;;;4995925;28;20136;-74
2023/06/04 11:06:16;;;;;;;0.45;0.45;;;21.40;65.70;;;;;;5004651;28;20583;-74
2023/06/04 11:08:42;;;;;;;0.60;0.60;;;21.40;65.70;;;;;;5009659;28;20046;-74
2023/06/04 11:11:12;;;;;;;0.70;0.70;;;21.40;65.80;;;;;;4990673;28;20037;-74
2023/06/04 11:13:38;;;;;;;0.65;0.65;;;21.40;65.80;;;;;;5003290;28;20042;-74
2023/06/04 11:16:03;;;;;;;0.77;0.60;;;21.40;65.70;;;;;;5005290;28;20034;-74
2023/06/04 11:18:29;;;;;;;0.50;0.50;;;21.40;65.70;;;;;;5003512;28;20170;-80
2023/06/04 11:21:01;;;;;;;0.70;0.70;;;21.50;65.70;;;;;;4993364;28;20125;-80
2023/06/04 11:23:27;;;;;;;0.65;0.65;;;21.40;65.60;;;;;;4989335;28;20043;-80
2023/06/04 11:25:53;;;;;;;0.60;0.60;;;21.40;65.60;;;;;;4992652;28;20057;-80
2023/06/04 11:28:18;;;;;;;0.50;0.50;;;21.40;65.60;;;;;;4995467;28;20042;-80
2023/06/04 11:30:55;;;;;;;0.70;0.70;;;21.50;65.60;;;;;;4994350;28;20050;-80
2023/06/04 11:33:20;;;;;;;0.60;0.60;;;21.40;65.60;;;;;;4994663;28;20132;-81
2023/06/04 11:35:46;;;;;;;0.70;0.70;;;21.50;65.60;;;;;;4993951;28;20133;-80
2023/06/04 11:38:12;;;;;;;0.80;0.80;;;21.50;65.60;;;;;;4996966;28;20038;-80
2023/06/04 11:40:37;;;;;;;0.60;0.60;;;21.50;65.50;;;;;;5008414;28;20507;-80
2023/06/04 11:43:03;;;;;;;0.80;0.80;;;21.50;65.60;;;;;;4998971;28;20042;-80
2023/06/04 11:45:30;;;;;;;0.68;0.68;;;21.50;65.60;;;;;;5009114;28;20061;-80
2023/06/04 11:47:56;;;;;;;0.63;0.63;;;21.50;65.50;;;;;;5008975;28;20527;-80
2023/06/04 11:50:23;;;;;;;0.60;0.60;;;21.50;65.50;;;;;;4989961;28;20043;-80
2023/06/04 11:52:48;;;;;;;0.80;0.80;;;21.50;65.50;;;;;;4994875;28;20104;-80
2023/06/04 11:55:14;;;;;;;0.50;0.50;;;21.50;65.50;;;;;;4993640;28;20038;-80
2023/06/04 11:57:40;;;;;;;0.60;0.60;;;21.50;65.50;;;;;;4991985;28;20046;-80
2023/06/04 12:00:10;;;;;;;0.52;0.52;;;21.60;65.60;;;;;;5008144;28;20095;-79
2023/06/04 12:02:48;;;;;;;0.82;0.82;;;21.60;65.50;;;;;;4989612;28;20156;-80
2023/06/04 12:05:18;;;;;;;0.80;0.80;;;21.60;65.50;;;;;;5007877;28;20039;-80
2023/06/04 12:07:44;;;;;;;0.80;0.80;;;21.60;66.30;;;;;;4993628;28;20113;-80
2023/06/04 12:10:11;;;;;;;0.90;0.90;;;21.50;66.10;;;;;;4991514;28;20522;-80
2023/06/04 12:12:37;;;;;;;0.85;0.85;;;21.60;65.40;;;;;;4993388;28;20120;-80
2023/06/04 12:15:05;;;;;;;0.95;0.60;;;21.60;65.40;;;;;;5009313;28;20504;-80
2023/06/04 12:17:31;;;;;;;0.63;0.60;;;21.60;65.50;;;;;;5007903;28;20077;-80
2023/06/04 12:19:58;;;;;;;0.70;0.70;;;21.60;65.40;;;;;;4992605;28;20058;-80
2023/06/04 12:22:24;;;;;;;0.90;0.77;;;21.60;65.40;;;;;;4992578;28;20050;-80
2023/06/04 12:24:55;;;;;;;0.98;0.98;;;21.60;65.40;;;;;;4994485;28;20038;-80
2023/06/04 12:27:22;;;;;;;0.80;0.80;;;21.60;65.40;;;;;;4991402;28;20050;-80
2023/06/04 12:30:01;;;;;;;0.70;0.70;;;21.60;65.40;;;;;;4991958;28;20037;-80
2023/06/04 12:32:27;;;;;;;0.52;0.52;;;21.60;65.30;;;;;;5005418;28;20046;-80
2023/06/04 12:34:53;;;;;;;0.60;0.60;;;21.70;65.40;;;;;;5009687;28;20416;-80
2023/06/04 12:37:19;;;;;;;0.70;0.70;;;21.60;65.20;;;;;;4994282;28;20066;-80
2023/06/04 12:39:45;;;;;;;0.60;0.60;;;21.70;66.10;;;;;;4993841;28;20090;-80
2023/06/04 12:42:11;;;;;;;0.98;0.80;;;21.70;65.30;;;;;;4993038;28;20042;-80
2023/06/04 12:44:37;;;;;;;0.70;0.70;;;21.70;65.20;;;;;;4991314;28;20034;-80